Flight Track Log - Related Links

Times and Time Zones

All times are in EDT time to prevent confusion due to time zone crossing. See the KAP202 flight status page for this flight to view local times or setup timezone preferences in your user account.

Time Position Orientation Groundspeed Altitude Reporting Facility
EDT Latitude Longitude Course Direction KTS MPH feet Rate Location/Type
Sun 08:43:33 AM 18.4333 -65.9833 90° East 100 115 400  Level San Juan Center
Sun 08:44:33 AM 18.4333 -65.9500 90° East 110 127 1,400 900 Climbing San Juan Center
Sun 08:45:33 AM 18.4333 -65.9167 62° Northeast 120 138 2,200 645 Climbing San Juan Center
Sun 08:46:34 AM 18.4500 -65.8833 90° East 130 150 2,700 545 Climbing San Juan Center
Sun 08:47:34 AM 18.4500 -65.8500 62° Northeast 140 161 3,300 650 Climbing San Juan Center
Sun 08:48:34 AM 18.4667 -65.8167 90° East 120 138 4,000 694 Climbing San Juan Center
Sun 08:49:35 AM 18.4667 -65.7833 90° East 130 150 4,700 645 Climbing San Juan Center
Sun 08:50:35 AM 18.4667 -65.7333 118° Southeast 140 161 5,300 550 Climbing San Juan Center
Sun 08:51:35 AM 18.4500 -65.7000 118° Southeast 140 161 5,800 545 Climbing San Juan Center
Sun 08:52:36 AM 18.4333 -65.6667 137° Southeast 130 150 6,400 595 Climbing San Juan Center
Sun 08:53:36 AM 18.4000 -65.6333 136° Southeast 140 161 7,000 298 Climbing San Juan Center
Sun 08:54:37 AM 18.3667 -65.6000 118° Southeast 160 184 7,000  Level San Juan Center
Sun 08:55:36 AM 18.3500 -65.5667 136° Southeast 170 196 7,000  Level San Juan Center
Sun 08:56:37 AM 18.3167 -65.5333 125° Southeast 170 196 7,000  Level San Juan Center
Sun 08:57:37 AM 18.2833 -65.4833 136° Southeast 180 207 7,000  Level San Juan Center
Sun 08:58:38 AM 18.2500 -65.4500 136° Southeast 170 196 7,000  Level San Juan Center
Sun 08:59:38 AM 18.2167 -65.4167 125° Southeast 170 196 7,000  Level San Juan Center
Sun 09:00:38 AM 18.1833 -65.3667 136° Southeast 170 196 7,000  Level San Juan Center
Sun 09:01:39 AM 18.1500 -65.3333 136° Southeast 170 196 7,000  Level San Juan Center
Sun 09:02:39 AM 18.1167 -65.3000 118° Southeast 160 184 7,000 -250 Level San Juan Center
Sun 09:03:39 AM 18.1000 -65.2667 136° Southeast 160 184 6,500 -496 Descending San Juan Center
Sun 09:04:40 AM 18.0667 -65.2333 125° Southeast 180 207 6,000 -545 Descending San Juan Center
Sun 09:05:40 AM 18.0333 -65.1833 136° Southeast 180 207 5,400 -645 Descending San Juan Center
Sun 09:06:41 AM 18.0000 -65.1500 125° Southeast 180 207 4,700 -694 Descending San Juan Center
Sun 09:07:41 AM 17.9667 -65.1000 136° Southeast 170 196 4,000 -700 Descending San Juan Center
Sun 09:08:41 AM 17.9333 -65.0667 109° East 180 207 3,300 -645 Descending San Juan Center
Sun 09:09:42 AM 17.9167 -65.0167 136° Southeast 170 196 2,700 -545 Descending San Juan Center
Sun 09:10:42 AM 17.8833 -64.9833 136° Southeast 160 184 2,200 -250 Descending San Juan Center
Sun 09:11:42 AM 17.8500 -64.9500 155° Southeast 150 173 2,200  Level San Juan Center
Sun 09:12:43 AM 17.8167 -64.9333 205° Southwest 150 173 2,200  Level San Juan Center
Sun 09:13:43 AM 17.7833 -64.9500 180° South 150 173 2,200  Level San Juan Center
Sun 09:14:43 AM 17.7333 -64.9500 180° South 140 161 2,200  Level San Juan Center
Sun 09:15:43 AM 17.7000 -64.9500 90° East 150 173 2,200 -149 Level San Juan Center
Sun 09:16:44 AM 17.7000 -64.9000 118° Southeast 150 173 1,900 -496 Descending San Juan Center
Sun 09:17:44 AM 17.6833 -64.8667 62° Northeast 140 161 1,200 -645 Descending San Juan Center
Sun 09:18:45 AM 17.7000 -64.8333 62° Northeast 150 173 600 -590 Descending San Juan Center

Login

Don't have an account? Register now (free) for customized features, flight alerts, and more!